createdAt,value
2023-02-16T00:01:03.576Z,-1.2
2023-02-16T00:03:03.302Z,-1.2
2023-02-16T00:05:03.330Z,-1.25
2023-02-16T00:07:03.283Z,-1.29
2023-02-16T00:09:03.253Z,-1.38
2023-02-16T00:11:03.591Z,-1.39
2023-02-16T00:14:01.761Z,-1.36
2023-02-16T00:16:01.766Z,-1.33
2023-02-16T00:18:01.712Z,-1.43
2023-02-16T00:20:01.732Z,-1.46
2023-02-16T00:22:01.760Z,-1.5
2023-02-16T00:24:01.698Z,-1.49
2023-02-16T00:26:01.724Z,-1.6
2023-02-16T00:28:46.497Z,-1.43
2023-02-16T00:30:46.558Z,-1.49
2023-02-16T00:32:46.526Z,-1.38
2023-02-16T00:34:46.490Z,-1.42
2023-02-16T00:36:46.528Z,-1.52
2023-02-16T00:38:46.508Z,-1.53
2023-02-16T00:40:46.514Z,-1.51
2023-02-16T00:44:43.574Z,-1.54
2023-02-16T00:46:43.600Z,-1.53
2023-02-16T00:48:45.176Z,-1.54
2023-02-16T00:50:43.586Z,-1.62
2023-02-16T00:52:43.594Z,-1.54
2023-02-16T00:54:43.620Z,-1.49
2023-02-16T00:56:43.598Z,-1.55
2023-02-16T00:59:30.308Z,-1.59
2023-02-16T01:01:30.284Z,-1.59
2023-02-16T01:03:30.263Z,-1.62
2023-02-16T01:05:30.290Z,-1.67
2023-02-16T01:07:30.238Z,-1.67
2023-02-16T01:09:30.268Z,-1.73
2023-02-16T01:11:30.256Z,-1.78
2023-02-16T01:14:48.247Z,-1.77
2023-02-16T01:16:48.200Z,-1.79
2023-02-16T01:18:48.237Z,-1.79
2023-02-16T01:20:48.260Z,-1.84
2023-02-16T01:22:48.201Z,-1.81
2023-02-16T01:24:48.201Z,-1.85
2023-02-16T01:26:48.275Z,-1.84
2023-02-16T01:30:14.230Z,-1.85
2023-02-16T01:32:14.313Z,-1.97
2023-02-16T01:34:14.136Z,-1.89
2023-02-16T01:36:14.165Z,-1.89
2023-02-16T01:38:14.136Z,-1.97
2023-02-16T01:40:14.185Z,-2.09
2023-02-16T01:42:14.172Z,-2.11
2023-02-16T01:45:19.859Z,-2.03
2023-02-16T01:47:19.847Z,-2.06
2023-02-16T01:49:19.834Z,-2.11
2023-02-16T01:51:19.887Z,-2.12
2023-02-16T01:53:19.855Z,-2.13
2023-02-16T01:55:19.880Z,-2.17
2023-02-16T01:57:19.867Z,-2.21
2023-02-16T02:00:30.555Z,-2.21
2023-02-16T02:02:30.511Z,-2.19
2023-02-16T02:04:30.545Z,-2.26
2023-02-16T02:06:30.491Z,-2.41
2023-02-16T02:08:30.557Z,-2.52
2023-02-16T02:10:30.482Z,-2.46
2023-02-16T02:12:30.570Z,-2.4
2023-02-16T02:15:37.209Z,-2.28
2023-02-16T02:17:37.230Z,-2.29
2023-02-16T02:19:37.238Z,-2.23
2023-02-16T02:21:37.199Z,-2.28
2023-02-16T02:23:37.199Z,-2.28
2023-02-16T02:25:37.239Z,-2.26
2023-02-16T02:27:37.342Z,-2.42
2023-02-16T02:30:47.825Z,-2.28
2023-02-16T02:32:47.742Z,-2.38
2023-02-16T02:34:47.754Z,-2.36
2023-02-16T02:36:47.761Z,-2.41
2023-02-16T02:38:47.763Z,-2.47
2023-02-16T02:40:47.748Z,-2.38
2023-02-16T02:42:47.818Z,-2.39
2023-02-16T02:45:51.344Z,-2.43
2023-02-16T02:47:51.288Z,-2.53
2023-02-16T02:49:51.242Z,-2.46
2023-02-16T02:51:51.327Z,-2.49
2023-02-16T02:53:51.247Z,-2.43
2023-02-16T02:55:51.262Z,-2.47
2023-02-16T02:57:51.327Z,-2.43
2023-02-16T03:00:42.171Z,-2.44
2023-02-16T03:02:42.142Z,-2.51
2023-02-16T03:04:42.201Z,-2.58
2023-02-16T03:06:42.338Z,-2.6
2023-02-16T03:08:42.167Z,-2.64
2023-02-16T03:10:42.126Z,-2.56
2023-02-16T03:12:42.144Z,-2.59
2023-02-16T03:16:10.312Z,-2.61
2023-02-16T03:18:10.203Z,-2.67
2023-02-16T03:20:10.189Z,-2.61
2023-02-16T03:22:10.224Z,-2.64
2023-02-16T03:24:10.226Z,-2.68
2023-02-16T03:26:10.194Z,-2.8
2023-02-16T03:28:10.178Z,-2.75
2023-02-16T03:30:58.091Z,-2.76
2023-02-16T03:32:58.012Z,-2.71
2023-02-16T03:34:57.984Z,-2.65
2023-02-16T03:36:58.008Z,-2.67
2023-02-16T03:38:57.969Z,-2.7
2023-02-16T03:40:58.038Z,-2.68
2023-02-16T03:42:57.975Z,-2.88
2023-02-16T03:46:48.279Z,-2.79
2023-02-16T03:48:48.285Z,-2.82
2023-02-16T03:50:48.365Z,-2.86
2023-02-16T03:52:48.256Z,-2.82
2023-02-16T03:54:48.269Z,-2.84
2023-02-16T03:56:48.248Z,-2.82
2023-02-16T03:58:48.242Z,-2.8
2023-02-16T04:01:41.827Z,-2.84
2023-02-16T04:03:41.733Z,-2.87
2023-02-16T04:05:41.820Z,-2.97
2023-02-16T04:07:41.713Z,-2.92
2023-02-16T04:09:41.730Z,-2.89
2023-02-16T04:11:41.773Z,-2.96
2023-02-16T04:13:41.761Z,-2.97
2023-02-16T04:16:58.891Z,-3.06
2023-02-16T04:18:58.908Z,-3.08
2023-02-16T04:20:58.970Z,-3.01
2023-02-16T04:22:58.886Z,-3.03
2023-02-16T04:24:58.903Z,-2.99
2023-02-16T04:26:58.922Z,-2.97
2023-02-16T04:28:58.913Z,-2.93
2023-02-16T04:31:48.231Z,-3.01
2023-02-16T04:33:48.100Z,-3.01
2023-02-16T04:35:48.088Z,-3.1
2023-02-16T04:37:48.289Z,-3.09
2023-02-16T04:39:48.072Z,-3.1
2023-02-16T04:41:48.201Z,-3.25
2023-02-16T04:43:48.094Z,-3.13
2023-02-16T04:47:01.823Z,-3.18
2023-02-16T04:49:01.825Z,-3.21
2023-02-16T04:51:02.056Z,-3.29
2023-02-16T04:53:01.854Z,-3.36
2023-02-16T04:55:01.770Z,-3.46
2023-02-16T04:57:01.802Z,-3.53
2023-02-16T04:59:01.801Z,-3.47
2023-02-16T05:01:57.231Z,-3.52
2023-02-16T05:03:57.256Z,-3.56
2023-02-16T05:05:57.204Z,-3.63
2023-02-16T05:07:57.191Z,-3.59
2023-02-16T05:09:57.202Z,-3.66
2023-02-16T05:11:57.192Z,-3.57
2023-02-16T05:13:57.247Z,-3.57
2023-02-16T05:17:05.957Z,-3.51
2023-02-16T05:19:06.006Z,-3.5
2023-02-16T05:21:06.309Z,-3.46
2023-02-16T05:23:05.979Z,-3.47
2023-02-16T05:25:05.966Z,-3.53
2023-02-16T05:27:05.949Z,-3.76
2023-02-16T05:29:06.016Z,-3.72
2023-02-16T05:32:38.992Z,-3.57
2023-02-16T05:34:38.955Z,-3.51
2023-02-16T05:36:38.876Z,-3.48
2023-02-16T05:38:38.912Z,-3.47
2023-02-16T05:40:38.961Z,-3.46
2023-02-16T05:42:38.919Z,-3.49
2023-02-16T05:44:38.881Z,-3.53
2023-02-16T05:47:18.182Z,-3.5
2023-02-16T05:49:18.231Z,-3.47
2023-02-16T05:51:18.154Z,-3.43
2023-02-16T05:53:18.214Z,-3.3
2023-02-16T05:55:18.164Z,-3.23
2023-02-16T05:57:18.216Z,-3.2
2023-02-16T05:59:18.199Z,-3.12
2023-02-16T06:01:18.177Z,-3.07
2023-02-16T06:03:04.202Z,-3.08
2023-02-16T06:05:04.258Z,-3.03
2023-02-16T06:07:04.221Z,-2.95
2023-02-16T06:09:04.188Z,-2.93
2023-02-16T06:11:04.554Z,-2.86
2023-02-16T06:13:04.237Z,-2.8
2023-02-16T06:15:04.180Z,-2.96
2023-02-16T06:18:16.168Z,-2.72
2023-02-16T06:20:16.165Z,-2.6
2023-02-16T06:22:16.172Z,-2.45
2023-02-16T06:24:16.148Z,-2.23
2023-02-16T06:26:16.117Z,-2.26
2023-02-16T06:28:16.155Z,-2.29
2023-02-16T06:30:16.300Z,-2.19
2023-02-16T06:33:41.132Z,-2.05
2023-02-16T06:35:41.158Z,-1.9
2023-02-16T06:37:41.109Z,-1.71
2023-02-16T06:39:41.178Z,-1.78
2023-02-16T06:41:41.170Z,-1.74
2023-02-16T06:43:41.123Z,-1.69
2023-02-16T06:45:41.125Z,-1.48
2023-02-16T06:48:44.477Z,-1.52
2023-02-16T06:50:44.445Z,-1.63
2023-02-16T06:52:44.495Z,-1.68
2023-02-16T06:54:44.439Z,-1.85
2023-02-16T06:56:44.521Z,-1.68
2023-02-16T06:58:44.583Z,-1.24
2023-02-16T07:00:44.512Z,-1.1
2023-02-16T07:03:33.261Z,-1.24
2023-02-16T07:05:33.289Z,-1.24
2023-02-16T07:07:34.841Z,-1.18
2023-02-16T07:09:33.240Z,-1
2023-02-16T07:11:33.283Z,-0.83
2023-02-16T07:13:33.215Z,-1.06
2023-02-16T07:15:33.279Z,-0.87
2023-02-16T07:18:41.299Z,-0.68
2023-02-16T07:20:41.300Z,-0.84
2023-02-16T07:22:41.369Z,-0.93
2023-02-16T07:24:41.286Z,-0.99
2023-02-16T07:26:41.329Z,-0.88
2023-02-16T07:28:41.264Z,-0.93
2023-02-16T07:30:41.319Z,-0.77
2023-02-16T07:34:16.722Z,-0.79
2023-02-16T07:36:16.734Z,-0.88
2023-02-16T07:38:16.673Z,-0.83
2023-02-16T07:40:16.684Z,-0.76
2023-02-16T07:42:16.876Z,-0.86
2023-02-16T07:44:16.769Z,-0.63
2023-02-16T07:46:17.015Z,-0.59
2023-02-16T07:49:24.446Z,-0.46
2023-02-16T07:51:24.540Z,-0.48
2023-02-16T07:53:24.497Z,-0.2
2023-02-16T07:55:24.460Z,-0.19
2023-02-16T07:57:24.430Z,-0.39
2023-02-16T07:59:24.472Z,-0.21
2023-02-16T08:01:24.458Z,-0.19
2023-02-16T08:04:33.454Z,-0.34
2023-02-16T08:06:33.387Z,-0.09
2023-02-16T08:08:33.369Z,0.1
2023-02-16T08:10:33.426Z,0.29
2023-02-16T08:12:33.393Z,0.26
2023-02-16T08:14:33.373Z,0.07
2023-02-16T08:16:33.459Z,0.25
2023-02-16T08:19:12.669Z,-0.09
2023-02-16T08:21:12.759Z,0.52
2023-02-16T08:23:12.668Z,0.41
2023-02-16T08:25:12.670Z,0.62
2023-02-16T08:27:12.745Z,0.7
2023-02-16T08:29:12.688Z,0.53
2023-02-16T08:31:12.756Z,0.62
2023-02-16T08:34:22.936Z,0.73
2023-02-16T08:36:22.845Z,0.61
2023-02-16T08:38:22.867Z,0.24
2023-02-16T08:40:22.830Z,0.97
2023-02-16T08:42:22.833Z,1.09
2023-02-16T08:44:22.902Z,0.99
2023-02-16T08:46:23.109Z,1.21
2023-02-16T08:49:57.943Z,1.21
2023-02-16T08:51:57.924Z,1.26
2023-02-16T08:53:57.876Z,1.24
2023-02-16T08:55:57.887Z,1.01
2023-02-16T08:57:57.849Z,1.04
2023-02-16T08:59:57.915Z,1.49
2023-02-16T09:01:57.928Z,1.11
2023-02-16T09:05:19.977Z,1.29
2023-02-16T09:07:20.022Z,1.55
2023-02-16T09:09:20.294Z,1.98
2023-02-16T09:11:19.919Z,2.13
2023-02-16T09:13:19.976Z,2.4
2023-02-16T09:15:19.919Z,2.36
2023-02-16T09:17:19.965Z,2.39
2023-02-16T09:20:18.775Z,2.74
2023-02-16T09:22:18.805Z,2.94
2023-02-16T09:24:18.835Z,2.81
2023-02-16T09:26:18.747Z,2.73
2023-02-16T09:28:18.748Z,2.92
2023-02-16T09:30:18.777Z,2.93
2023-02-16T09:32:18.735Z,2.93
2023-02-16T09:35:25.736Z,3.6
2023-02-16T09:37:25.804Z,3.57
2023-02-16T09:39:25.794Z,3.96
2023-02-16T09:41:25.728Z,4.09
2023-02-16T09:43:25.717Z,4.08
2023-02-16T09:45:25.790Z,3.98
2023-02-16T09:47:25.727Z,4.12
2023-02-16T09:50:54.073Z,4.48
2023-02-16T09:52:50.955Z,4.51
2023-02-16T09:54:49.043Z,4.66
2023-02-16T09:56:49.086Z,4.75
2023-02-16T09:58:49.049Z,4.98
2023-02-16T10:00:49.080Z,4.95
2023-02-16T10:02:49.066Z,5.18
2023-02-16T10:05:46.856Z,5.07
2023-02-16T10:07:46.755Z,5.2
2023-02-16T10:09:46.843Z,5.28
2023-02-16T10:11:46.937Z,5.83
2023-02-16T10:13:46.765Z,5.69
2023-02-16T10:15:46.816Z,5.61
2023-02-16T10:17:46.931Z,5.49
2023-02-16T10:20:51.363Z,6.05
2023-02-16T10:22:51.476Z,6.01
2023-02-16T10:24:51.481Z,5.91
2023-02-16T10:26:51.396Z,6.41
2023-02-16T10:28:51.372Z,6.54
2023-02-16T10:30:51.491Z,6.73
2023-02-16T10:32:51.374Z,6.89
2023-02-16T10:36:15.944Z,6.87
2023-02-16T10:38:15.900Z,7.17
2023-02-16T10:40:15.917Z,7.41
2023-02-16T10:42:15.954Z,7.41
2023-02-16T10:44:15.890Z,7.58
2023-02-16T10:46:15.916Z,7.5
2023-02-16T10:48:15.929Z,7.8
2023-02-16T10:50:59.532Z,7.56
2023-02-16T10:52:59.533Z,7.43
2023-02-16T10:54:59.530Z,7.93
2023-02-16T10:56:59.653Z,7.1
2023-02-16T10:58:59.512Z,7.55
2023-02-16T11:00:59.487Z,7.28
2023-02-16T11:03:02.170Z,7.45
2023-02-16T11:06:27.183Z,8.29
2023-02-16T11:08:28.263Z,7.95
2023-02-16T11:10:27.178Z,8.05
2023-02-16T11:12:27.274Z,8.11
2023-02-16T11:14:27.199Z,8.24
2023-02-16T11:16:27.205Z,8.63
2023-02-16T11:18:27.268Z,8.46
2023-02-16T11:21:24.540Z,8.06
2023-02-16T11:23:24.613Z,8.32
2023-02-16T11:25:24.603Z,8.47
2023-02-16T11:27:24.627Z,8.24
2023-02-16T11:29:24.525Z,8.59
2023-02-16T11:31:24.569Z,9.18
2023-02-16T11:33:24.554Z,9.1
2023-02-16T11:36:43.855Z,9.35
2023-02-16T11:38:43.880Z,8.81
2023-02-16T11:40:43.838Z,9.32
2023-02-16T11:42:43.860Z,9.26
2023-02-16T11:44:43.919Z,9.41
2023-02-16T11:46:43.889Z,9.39
2023-02-16T11:48:43.816Z,9.66
2023-02-16T11:52:10.393Z,9.89
2023-02-16T11:54:10.338Z,9.4
2023-02-16T11:56:10.388Z,9.53
2023-02-16T11:58:10.341Z,10.38
2023-02-16T12:00:10.380Z,9.88
2023-02-16T12:02:10.361Z,10.02
2023-02-16T12:04:10.452Z,10.83
2023-02-16T12:06:58.021Z,10.71
2023-02-16T12:08:58.041Z,10.87
2023-02-16T12:10:58.083Z,10.6
2023-02-16T12:12:58.057Z,10.1
2023-02-16T12:14:58.015Z,10.15
2023-02-16T12:16:58.049Z,9.82
2023-02-16T12:18:58.053Z,10.23
2023-02-16T12:22:27.558Z,10.63
2023-02-16T12:24:27.610Z,10.95
2023-02-16T12:26:27.621Z,10.77
2023-02-16T12:28:27.615Z,10.79
2023-02-16T12:30:27.642Z,10.63
2023-02-16T12:32:27.637Z,11.29
2023-02-16T12:34:27.578Z,11.04
2023-02-16T12:37:08.288Z,10.7
2023-02-16T12:39:08.297Z,10.7
2023-02-16T12:41:08.308Z,10.96
2023-02-16T12:43:08.347Z,11.15
2023-02-16T12:45:08.334Z,11.67
2023-02-16T12:47:08.310Z,11.05
2023-02-16T12:49:08.294Z,10.65
2023-02-16T12:52:48.937Z,11.38
2023-02-16T12:54:48.901Z,11.61
2023-02-16T12:56:48.893Z,11.87
2023-02-16T12:58:48.978Z,11.76
2023-02-16T13:00:48.953Z,11.29
2023-02-16T13:02:49.006Z,11.06
2023-02-16T13:04:48.895Z,11.42
2023-02-16T13:08:06.364Z,11.18
2023-02-16T13:10:06.341Z,11.55
2023-02-16T13:12:06.298Z,11.71
2023-02-16T13:14:06.412Z,11.98
2023-02-16T13:16:08.265Z,12.01
2023-02-16T13:18:06.335Z,11.75
2023-02-16T13:20:06.310Z,12.08
2023-02-16T13:23:11.687Z,11.46
2023-02-16T13:25:11.655Z,11.27
2023-02-16T13:27:11.672Z,11.36
2023-02-16T13:29:11.771Z,11.83
2023-02-16T13:31:11.702Z,11.35
2023-02-16T13:33:11.719Z,11.81
2023-02-16T13:35:11.631Z,12.13
2023-02-16T13:38:16.996Z,12.36
2023-02-16T13:40:16.980Z,12.56
2023-02-16T13:42:17.004Z,12.47
2023-02-16T13:44:17.002Z,12.47
2023-02-16T13:46:17.028Z,12.41
2023-02-16T13:48:16.993Z,12.45
2023-02-16T13:50:16.991Z,12.41
2023-02-16T13:53:32.289Z,12.48
2023-02-16T13:55:32.231Z,12.42
2023-02-16T13:57:32.297Z,12.44
2023-02-16T13:59:32.278Z,12.4
2023-02-16T14:01:32.391Z,12.31
2023-02-16T14:03:32.221Z,12.24
2023-02-16T14:05:32.287Z,12.2
2023-02-16T14:08:22.984Z,11.99
2023-02-16T14:10:23.016Z,12.01
2023-02-16T14:12:22.987Z,12.05
2023-02-16T14:14:23.115Z,11.94
2023-02-16T14:16:23.006Z,11.88
2023-02-16T14:18:25.871Z,11.72
2023-02-16T14:20:22.980Z,11.63
2023-02-16T14:23:43.989Z,11.49
2023-02-16T14:25:43.958Z,11.46
2023-02-16T14:27:43.932Z,11.33
2023-02-16T14:29:43.938Z,11.2
2023-02-16T14:31:44.068Z,11.1
2023-02-16T14:33:43.938Z,11.06
2023-02-16T14:35:43.994Z,11.04
2023-02-16T14:38:23.584Z,10.96
2023-02-16T14:40:23.640Z,10.9
2023-02-16T14:42:23.556Z,10.73
2023-02-16T14:44:23.582Z,10.61
2023-02-16T14:46:23.719Z,10.53
2023-02-16T14:48:23.612Z,10.48
2023-02-16T14:50:23.627Z,10.43
2023-02-16T14:53:33.513Z,10.14
2023-02-16T14:55:33.580Z,10.11
2023-02-16T14:57:33.506Z,10.17
2023-02-16T14:59:33.502Z,10.01
2023-02-16T15:01:33.594Z,10.01
2023-02-16T15:03:33.819Z,9.97
2023-02-16T15:05:33.638Z,9.81
2023-02-16T15:08:56.753Z,9.63
2023-02-16T15:10:56.810Z,9.48
2023-02-16T15:12:56.791Z,9.47
2023-02-16T15:14:56.801Z,9.43
2023-02-16T15:16:56.761Z,9.24
2023-02-16T15:18:56.785Z,9.22
2023-02-16T15:20:56.723Z,9.2
2023-02-16T15:23:54.970Z,9.02
2023-02-16T15:25:54.904Z,8.99
2023-02-16T15:27:54.841Z,8.96
2023-02-16T15:29:54.935Z,8.88
2023-02-16T15:31:55.177Z,8.75
2023-02-16T15:33:54.805Z,8.68
2023-02-16T15:35:54.851Z,8.6
2023-02-16T15:40:00.942Z,8.61
2023-02-16T15:41:47.324Z,8.49
2023-02-16T15:43:47.398Z,8.34
2023-02-16T15:45:47.305Z,8.3
2023-02-16T15:47:47.339Z,8.23
2023-02-16T15:49:47.299Z,8.12
2023-02-16T15:51:47.352Z,8.07
2023-02-16T15:54:14.115Z,7.99
2023-02-16T15:56:14.139Z,7.92
2023-02-16T15:58:14.114Z,7.82
2023-02-16T16:00:14.159Z,7.71
2023-02-16T16:02:14.199Z,7.63
2023-02-16T16:04:14.167Z,7.54
2023-02-16T16:06:14.071Z,7.55
2023-02-16T16:09:55.499Z,7.47
2023-02-16T16:11:55.435Z,7.4
2023-02-16T16:13:55.509Z,7.38
2023-02-16T16:15:55.529Z,7.4
2023-02-16T16:17:55.441Z,7.46
2023-02-16T16:19:55.437Z,7.42
2023-02-16T16:21:55.659Z,7.31
2023-02-16T16:24:26.078Z,7.24
2023-02-16T16:26:26.091Z,7.29
2023-02-16T16:28:26.093Z,7.47
2023-02-16T16:30:26.130Z,7.44
2023-02-16T16:32:26.215Z,7.31
2023-02-16T16:34:26.074Z,7.33
2023-02-16T16:36:26.079Z,7.43
2023-02-16T16:38:26.093Z,7.35
2023-02-16T16:39:33.373Z,7.3
2023-02-16T16:41:33.290Z,7.11
2023-02-16T16:43:33.338Z,7.07
2023-02-16T16:45:33.329Z,7.19
2023-02-16T16:47:33.334Z,7.35
2023-02-16T16:49:33.293Z,7.27
2023-02-16T16:51:33.264Z,7.3
2023-02-16T16:53:33.295Z,7.23
2023-02-16T16:54:51.655Z,7.25
2023-02-16T16:56:51.668Z,7.2
2023-02-16T16:58:51.649Z,7.16
2023-02-16T17:00:51.628Z,6.95
2023-02-16T17:02:51.688Z,6.62
2023-02-16T17:04:51.619Z,6.68
2023-02-16T17:06:51.594Z,6.79
2023-02-16T17:10:24.208Z,6.97
2023-02-16T17:12:24.127Z,7.06
2023-02-16T17:14:24.149Z,7.16
2023-02-16T17:16:24.149Z,7.14
2023-02-16T17:18:24.399Z,6.93
2023-02-16T17:20:24.252Z,6.75
2023-02-16T17:22:24.206Z,6.68
2023-02-16T17:25:26.170Z,6.72
2023-02-16T17:27:26.241Z,6.62
2023-02-16T17:29:26.163Z,6.52
2023-02-16T17:31:26.245Z,6.44
2023-02-16T17:33:26.186Z,6.28
2023-02-16T17:35:26.192Z,6.07
2023-02-16T17:37:26.196Z,6.07
2023-02-16T17:41:10.340Z,5.94
2023-02-16T17:43:10.379Z,5.93
2023-02-16T17:45:10.319Z,5.84
2023-02-16T17:47:10.339Z,5.77
2023-02-16T17:49:10.345Z,5.7
2023-02-16T17:51:10.396Z,5.59
2023-02-16T17:53:10.360Z,5.48
2023-02-16T17:56:15.716Z,5.46
2023-02-16T17:58:15.728Z,5.45
2023-02-16T18:00:15.720Z,5.43
2023-02-16T18:02:15.732Z,5.4
2023-02-16T18:04:15.851Z,5.35
2023-02-16T18:06:15.734Z,5.27
2023-02-16T18:08:15.925Z,5.24
2023-02-16T18:10:39.029Z,5.13
2023-02-16T18:12:38.967Z,5.1
2023-02-16T18:14:38.949Z,4.98
2023-02-16T18:16:38.991Z,5
2023-02-16T18:18:39.000Z,4.99
2023-02-16T18:20:38.978Z,4.91
2023-02-16T18:22:38.989Z,4.75
2023-02-16T18:24:39.021Z,4.7
2023-02-16T18:26:30.141Z,4.65
2023-02-16T18:28:30.176Z,4.63
2023-02-16T18:30:30.332Z,4.71
2023-02-16T18:32:30.140Z,4.6
2023-02-16T18:34:30.106Z,4.52
2023-02-16T18:36:30.252Z,4.47
2023-02-16T18:38:30.129Z,4.42
2023-02-16T18:41:30.936Z,4.4
2023-02-16T18:43:30.900Z,4.35
2023-02-16T18:45:30.932Z,4.26
2023-02-16T18:47:30.903Z,4.22
2023-02-16T18:49:30.999Z,4.11
2023-02-16T18:51:31.061Z,4.1
2023-02-16T18:53:30.913Z,4.08
2023-02-16T18:56:04.293Z,3.96
2023-02-16T18:58:05.182Z,3.98
2023-02-16T19:00:03.995Z,3.93
2023-02-16T19:02:03.968Z,3.93
2023-02-16T19:04:04.085Z,3.88
2023-02-16T19:06:04.389Z,3.92
2023-02-16T19:08:03.960Z,3.86
2023-02-16T19:10:04.038Z,3.88
2023-02-16T19:11:44.164Z,3.91
2023-02-16T19:13:44.491Z,3.83
2023-02-16T19:15:44.508Z,3.79
2023-02-16T19:17:44.294Z,3.66
2023-02-16T19:19:44.448Z,3.78
2023-02-16T19:21:44.265Z,3.72
2023-02-16T19:23:44.108Z,3.64
2023-02-16T19:27:09.581Z,3.64
2023-02-16T19:29:09.526Z,3.52
2023-02-16T19:31:09.652Z,3.43
2023-02-16T19:33:09.585Z,3.42
2023-02-16T19:35:09.555Z,3.21
2023-02-16T19:37:09.557Z,3.23
2023-02-16T19:39:09.576Z,3.18
2023-02-16T19:41:50.971Z,3.19
2023-02-16T19:43:50.953Z,3.19
2023-02-16T19:45:50.918Z,3.19
2023-02-16T19:47:50.897Z,3.11
2023-02-16T19:49:50.954Z,3
2023-02-16T19:51:50.913Z,2.9
2023-02-16T19:53:50.932Z,2.85
2023-02-16T19:56:49.813Z,2.92
2023-02-16T19:58:49.828Z,2.85
2023-02-16T20:00:49.863Z,2.76
2023-02-16T20:02:49.820Z,2.64
2023-02-16T20:04:50.106Z,2.71
2023-02-16T20:06:50.343Z,2.72
2023-02-16T20:08:49.814Z,2.71
2023-02-16T20:10:49.777Z,2.66
2023-02-16T20:12:32.564Z,2.58
2023-02-16T20:14:32.312Z,2.6
2023-02-16T20:16:32.343Z,2.56
2023-02-16T20:18:33.104Z,2.51
2023-02-16T20:20:32.122Z,2.5
2023-02-16T20:22:32.222Z,2.55
2023-02-16T20:24:32.126Z,2.52
2023-02-16T20:27:59.572Z,2.39
2023-02-16T20:29:59.628Z,2.35
2023-02-16T20:31:59.672Z,2.36
2023-02-16T20:33:59.497Z,2.32
2023-02-16T20:35:59.600Z,2.25
2023-02-16T20:37:59.638Z,2.23
2023-02-16T20:39:59.673Z,2.27
2023-02-16T20:42:53.998Z,2.34
2023-02-16T20:44:53.936Z,2.24
2023-02-16T20:46:53.885Z,2.17
2023-02-16T20:48:54.262Z,2.16
2023-02-16T20:50:53.859Z,2.19
2023-02-16T20:52:54.021Z,2.07
2023-02-16T20:54:54.795Z,2.09
2023-02-16T20:57:39.614Z,2.11
2023-02-16T20:59:39.627Z,2.13
2023-02-16T21:01:39.906Z,2.06
2023-02-16T21:03:39.537Z,1.96
2023-02-16T21:05:39.565Z,2.05
2023-02-16T21:07:39.643Z,1.97
2023-02-16T21:09:39.554Z,1.99
2023-02-16T21:12:40.697Z,1.81
2023-02-16T21:14:40.675Z,1.74
2023-02-16T21:16:40.680Z,1.69
2023-02-16T21:18:40.795Z,1.65
2023-02-16T21:20:40.620Z,1.59
2023-02-16T21:22:40.662Z,1.58
2023-02-16T21:24:41.401Z,1.6
2023-02-16T21:28:23.793Z,1.6
2023-02-16T21:30:22.401Z,1.54
2023-02-16T21:32:22.255Z,1.44
2023-02-16T21:34:22.331Z,1.53
2023-02-16T21:36:22.233Z,1.48
2023-02-16T21:38:22.320Z,1.46
2023-02-16T21:40:22.214Z,1.45
2023-02-16T21:43:23.788Z,1.36
2023-02-16T21:45:24.000Z,1.33
2023-02-16T21:47:23.750Z,1.32
2023-02-16T21:49:23.797Z,1.38
2023-02-16T21:51:23.662Z,1.31
2023-02-16T21:53:23.644Z,1.35
2023-02-16T21:55:23.682Z,1.3
2023-02-16T21:58:57.323Z,1.38
2023-02-16T22:00:57.370Z,1.37
2023-02-16T22:02:57.365Z,1.27
2023-02-16T22:04:57.301Z,1.35
2023-02-16T22:06:57.342Z,1.26
2023-02-16T22:08:57.333Z,1.13
2023-02-16T22:10:57.571Z,1.16
2023-02-16T22:13:15.731Z,1.21
2023-02-16T22:15:15.716Z,1.2
2023-02-16T22:17:15.749Z,1.04
2023-02-16T22:19:15.725Z,0.99
2023-02-16T22:21:15.688Z,0.95
2023-02-16T22:23:15.823Z,1.11
2023-02-16T22:25:15.687Z,1.15
2023-02-16T22:27:15.707Z,1.06
2023-02-16T22:29:03.772Z,0.95
2023-02-16T22:31:03.772Z,0.92
2023-02-16T22:33:03.773Z,0.91
2023-02-16T22:35:03.720Z,0.91
2023-02-16T22:37:03.775Z,0.99
2023-02-16T22:39:03.707Z,1.02
2023-02-16T22:41:03.743Z,0.99
2023-02-16T22:43:56.220Z,0.82
2023-02-16T22:45:56.243Z,0.91
2023-02-16T22:47:56.218Z,0.85
2023-02-16T22:49:56.236Z,0.87
2023-02-16T22:51:56.175Z,0.89
2023-02-16T22:53:56.193Z,0.88
2023-02-16T22:55:56.187Z,0.88
2023-02-16T22:59:37.970Z,0.85
2023-02-16T23:01:37.980Z,0.78
2023-02-16T23:03:37.914Z,0.76
2023-02-16T23:05:37.971Z,0.72
2023-02-16T23:07:37.920Z,0.66
2023-02-16T23:09:37.906Z,0.7
2023-02-16T23:11:37.968Z,0.71
2023-02-16T23:13:48.969Z,0.73
2023-02-16T23:15:48.976Z,0.71
2023-02-16T23:17:48.975Z,0.6
2023-02-16T23:19:48.966Z,0.53
2023-02-16T23:21:49.020Z,0.61
2023-02-16T23:23:49.210Z,0.62
2023-02-16T23:25:49.159Z,0.64
2023-02-16T23:27:49.067Z,0.6
2023-02-16T23:29:24.871Z,0.58
2023-02-16T23:31:24.908Z,0.54
2023-02-16T23:33:24.684Z,0.55
2023-02-16T23:35:24.733Z,0.55
2023-02-16T23:37:24.677Z,0.43
2023-02-16T23:39:24.676Z,0.39
2023-02-16T23:41:24.703Z,0.34
2023-02-16T23:45:03.964Z,0.49
2023-02-16T23:47:03.970Z,0.37
2023-02-16T23:49:03.922Z,0.4
2023-02-16T23:51:03.947Z,0.38
2023-02-16T23:53:03.951Z,0.32
2023-02-16T23:55:03.916Z,0.25
2023-02-16T23:57:03.946Z,0.32
